Time;durP1;ratioP1;P1;durP2;ratioP2;P2;SDS_P1;SDS_P2;PMS_P1;PMS_P2;Temp;Humidity;BMP_temperature;BMP_pressure;BME280_temperature;BME280_humidity;BME280_pressure;Samples;Min_cycle;Max_cycle;Signal;HPM_P1;HPM_P2
2023/03/25 00:00:14;;;;;;;10.52;1.88;;;9.70;99.90;;;;;;5109210;27;20035;-68
2023/03/25 00:02:41;;;;;;;9.77;1.48;;;9.80;99.90;;;;;;5105568;27;20127;-67
2023/03/25 00:05:07;;;;;;;10.32;1.60;;;9.70;99.90;;;;;;5110002;27;20082;-67
2023/03/25 00:07:32;;;;;;;9.90;1.95;;;9.70;99.90;;;;;;5102018;27;20035;-67
2023/03/25 00:09:58;;;;;;;9.73;1.92;;;9.70;99.90;;;;;;5103909;27;20055;-67
2023/03/25 00:12:25;;;;;;;12.05;1.73;;;9.70;99.90;;;;;;5144208;27;20039;-67
2023/03/25 00:14:53;;;;;;;10.98;1.90;;;9.60;99.90;;;;;;5109264;27;20031;-67
2023/03/25 00:17:25;;;;;;;12.35;2.17;;;9.60;99.90;;;;;;5115640;27;20079;-67
2023/03/25 00:19:51;;;;;;;6.28;1.67;;;9.60;99.90;;;;;;5086179;27;20035;-67
2023/03/25 00:22:18;;;;;;;8.50;1.45;;;9.60;99.90;;;;;;5093492;27;20051;-67
2023/03/25 00:24:44;;;;;;;12.85;2.33;;;9.60;99.90;;;;;;5110120;27;20067;-68
2023/03/25 00:27:09;;;;;;;9.45;2.42;;;9.60;99.90;;;;;;5105234;27;20035;-68
2023/03/25 00:29:35;;;;;;;10.73;2.10;;;9.50;99.90;;;;;;5108034;27;20058;-67
2023/03/25 00:32:01;;;;;;;11.82;1.75;;;9.60;99.90;;;;;;5102777;27;20047;-65
2023/03/25 00:34:26;;;;;;;12.13;1.92;;;9.50;99.90;;;;;;5099166;27;20031;-67
2023/03/25 00:36:52;;;;;;;7.70;2.05;;;9.40;99.90;;;;;;5088074;27;20046;-68
2023/03/25 00:39:18;;;;;;;12.63;1.98;;;9.40;99.90;;;;;;5109308;27;20043;-66
2023/03/25 00:41:43;;;;;;;9.00;1.75;;;9.30;99.90;;;;;;5109943;28;20083;-67
2023/03/25 00:44:11;;;;;;;9.30;1.90;;;9.20;99.90;;;;;;5104522;27;20042;-67
2023/03/25 00:46:37;;;;;;;12.82;1.95;;;9.20;99.90;;;;;;5110205;27;20035;-68
2023/03/25 00:49:03;;;;;;;9.55;1.80;;;9.10;99.90;;;;;;5104531;27;20035;-68
2023/03/25 00:51:30;;;;;;;8.80;1.50;;;9.10;99.90;;;;;;5111444;27;20039;-67
2023/03/25 00:54:00;;;;;;;13.88;1.90;;;9.00;99.90;;;;;;5112241;27;20074;-66
2023/03/25 00:56:27;;;;;;;8.20;1.52;;;9.00;99.90;;;;;;5112055;27;20106;-67
2023/03/25 00:58:52;;;;;;;10.38;2.28;;;9.00;99.90;;;;;;5113341;27;20035;-66
2023/03/25 01:01:22;;;;;;;15.18;4.22;;;9.00;99.90;;;;;;5106365;27;20127;-67
2023/03/25 01:03:56;;;;;;;12.38;2.17;;;9.00;99.90;;;;;;5139269;27;20130;-67
2023/03/25 01:06:27;;;;;;;14.65;2.42;;;9.00;99.90;;;;;;5088578;27;20047;-67
2023/03/25 01:08:57;;;;;;;12.77;2.20;;;8.90;99.90;;;;;;5104935;27;20046;-67
2023/03/25 01:11:26;;;;;;;8.93;2.38;;;8.90;99.90;;;;;;5122005;27;20099;-67
2023/03/25 01:13:54;;;;;;;10.50;2.20;;;8.90;99.90;;;;;;5094544;27;22058;-67
2023/03/25 01:16:20;;;;;;;10.68;1.80;;;8.80;99.90;;;;;;5109400;27;20081;-67
2023/03/25 01:18:45;;;;;;;12.38;1.90;;;8.80;99.90;;;;;;5096833;27;20087;-67
2023/03/25 01:21:11;;;;;;;10.60;1.80;;;8.80;99.90;;;;;;5113928;27;20049;-67
2023/03/25 01:23:37;;;;;;;9.35;2.42;;;8.70;99.90;;;;;;5113458;27;20027;-68
2023/03/25 01:26:03;;;;;;;9.63;2.35;;;8.70;99.90;;;;;;5097690;27;20050;-67
2023/03/25 01:28:29;;;;;;;11.00;1.90;;;8.80;99.90;;;;;;5113771;27;20031;-65
2023/03/25 01:31:02;;;;;;;10.13;2.67;;;8.80;99.90;;;;;;5111962;27;20043;-66
2023/03/25 01:33:28;;;;;;;11.77;2.15;;;8.80;99.90;;;;;;5113056;27;20057;-67
2023/03/25 01:35:54;;;;;;;12.98;2.45;;;8.80;99.90;;;;;;5114542;27;20110;-67
2023/03/25 01:38:20;;;;;;;12.55;2.45;;;8.70;99.90;;;;;;5109747;27;20039;-66
2023/03/25 01:40:46;;;;;;;12.25;1.90;;;8.70;99.90;;;;;;5161503;27;20117;-67
2023/03/25 01:43:15;;;;;;;10.40;2.10;;;8.70;99.90;;;;;;5152774;27;20042;-66
2023/03/25 01:45:40;;;;;;;10.98;2.05;;;8.70;99.90;;;;;;5112577;27;20371;-68
2023/03/25 01:48:17;;;;;;;8.60;1.92;;;8.60;99.90;;;;;;5112994;27;20053;-67
2023/03/25 01:50:48;;;;;;;15.75;2.38;;;8.60;99.90;;;;;;5096378;27;20052;-67
2023/03/25 01:53:15;;;;;;;14.00;2.08;;;8.50;99.90;;;;;;5113736;27;20035;-67
2023/03/25 01:55:43;;;;;;;14.95;2.92;;;8.50;99.90;;;;;;5107068;27;20088;-67
2023/03/25 01:58:12;;;;;;;12.60;2.97;;;8.50;99.90;;;;;;5139785;27;20087;-67
2023/03/25 02:00:43;;;;;;;15.93;2.58;;;8.40;99.90;;;;;;5110922;27;20054;-66
2023/03/25 02:03:10;;;;;;;13.35;3.67;;;8.40;99.90;;;;;;5116936;27;20039;-67
2023/03/25 02:05:47;;;;;;;15.35;2.47;;;8.30;99.90;;;;;;5117797;27;20046;-67
2023/03/25 02:08:14;;;;;;;11.63;2.35;;;8.30;99.90;;;;;;5113710;27;20051;-67
2023/03/25 02:10:43;;;;;;;20.85;3.92;;;8.30;99.90;;;;;;5110961;27;20047;-67
2023/03/25 02:13:10;;;;;;;17.25;2.90;;;8.20;99.90;;;;;;5114701;27;20096;-67
2023/03/25 02:16:14;;;;;;;11.25;2.42;;;8.30;99.90;;;;;;5093675;27;22008;-67
2023/03/25 02:19:17;;;;;;;15.52;2.55;;;8.20;99.90;;;;;;5110626;27;20103;-67
2023/03/25 02:22:20;;;;;;;13.43;2.53;;;8.20;99.90;;;;;;5010362;28;20149;-67
2023/03/25 02:25:19;;;;;;;15.50;2.72;;;8.20;99.90;;;;;;5031439;28;20164;-67
2023/03/25 02:27:53;;;;;;;14.75;2.72;;;8.10;99.90;;;;;;5010543;28;20050;-66
2023/03/25 02:30:31;;;;;;;17.65;2.88;;;8.10;99.90;;;;;;5010475;28;20096;-66
2023/03/25 02:33:27;;;;;;;14.50;2.95;;;8.20;99.90;;;;;;5010353;28;20037;-66
2023/03/25 02:36:36;;;;;;;13.00;2.40;;;8.20;99.90;;;;;;5010085;28;20142;-67
2023/03/25 02:39:32;;;;;;;11.07;2.42;;;8.20;99.90;;;;;;5027160;28;20053;-67
2023/03/25 02:42:16;;;;;;;15.85;3.17;;;8.20;99.90;;;;;;5010815;28;20048;-66
2023/03/25 02:45:01;;;;;;;15.25;2.65;;;8.20;99.90;;;;;;5012405;28;20120;-66
2023/03/25 02:47:33;;;;;;;16.75;2.75;;;8.20;99.90;;;;;;5009065;28;20045;-67
2023/03/25 02:50:10;;;;;;;21.20;3.00;;;8.30;99.90;;;;;;5010423;28;20049;-67
2023/03/25 02:52:48;;;;;;;17.23;2.72;;;8.30;99.90;;;;;;5028154;28;20049;-67
2023/03/25 02:55:16;;;;;;;13.10;2.60;;;8.30;99.90;;;;;;5011445;28;20392;-68
2023/03/25 02:57:46;;;;;;;13.60;2.80;;;8.30;99.90;;;;;;5024517;27;20097;-67
2023/03/25 03:00:17;;;;;;;15.82;2.92;;;8.30;99.90;;;;;;5110002;27;20151;-67
2023/03/25 03:02:52;;;;;;;18.33;3.72;;;8.30;99.90;;;;;;5095589;27;20493;-67
2023/03/25 03:05:45;;;;;;;16.02;2.42;;;8.30;99.90;;;;;;5114477;27;20058;-66
2023/03/25 03:08:20;;;;;;;18.13;2.55;;;8.30;99.90;;;;;;5106983;27;20050;-66
2023/03/25 03:10:54;;;;;;;15.60;2.88;;;8.40;99.90;;;;;;5108727;27;20408;-67
2023/03/25 03:13:37;;;;;;;12.75;2.50;;;8.40;99.90;;;;;;5137933;27;20037;-67
2023/03/25 03:16:20;;;;;;;13.80;2.60;;;8.40;99.90;;;;;;5100214;27;20027;-67
2023/03/25 03:19:04;;;;;;;15.93;2.65;;;8.40;99.90;;;;;;5103118;27;20074;-66
2023/03/25 03:21:45;;;;;;;16.52;2.75;;;8.40;99.90;;;;;;5103894;27;20485;-66
2023/03/25 03:24:26;;;;;;;14.65;2.63;;;8.40;99.90;;;;;;5110814;27;20041;-67
2023/03/25 03:27:15;;;;;;;12.45;3.30;;;8.40;99.90;;;;;;5094631;27;20043;-66
2023/03/25 03:29:48;;;;;;;13.35;2.42;;;8.40;99.90;;;;;;5029667;28;20045;-67
2023/03/25 03:32:24;;;;;;;11.93;3.03;;;8.40;99.90;;;;;;5005777;28;20128;-67
2023/03/25 03:35:01;;;;;;;10.55;2.47;;;8.40;99.90;;;;;;5009967;28;20077;-67
2023/03/25 03:37:33;;;;;;;18.23;3.10;;;8.40;99.90;;;;;;5025075;28;20183;-67
2023/03/25 03:40:04;;;;;;;12.15;2.33;;;8.40;99.90;;;;;;5007403;28;20033;-67
2023/03/25 03:42:36;;;;;;;16.42;3.10;;;8.40;99.90;;;;;;5005124;28;20530;-66
2023/03/25 03:45:32;;;;;;;12.35;2.75;;;8.40;99.90;;;;;;5009176;28;20413;-67
2023/03/25 03:48:00;;;;;;;18.45;3.22;;;8.40;99.90;;;;;;5007750;28;20876;-66
2023/03/25 03:50:31;;;;;;;14.10;3.30;;;8.40;99.90;;;;;;5007077;28;20057;-67
2023/03/25 03:53:21;;;;;;;15.50;2.35;;;8.30;99.90;;;;;;5006720;28;20133;-66
2023/03/25 03:56:00;;;;;;;15.57;3.03;;;8.30;99.90;;;;;;5008616;28;20053;-67
2023/03/25 03:58:33;;;;;;;17.17;3.45;;;8.30;99.90;;;;;;5010272;28;20069;-67
2023/03/25 04:01:29;;;;;;;14.88;3.03;;;8.30;99.90;;;;;;5005087;28;20091;-67
2023/03/25 04:04:05;;;;;;;11.52;2.75;;;8.30;99.90;;;;;;5007145;28;20453;-67
2023/03/25 04:06:40;;;;;;;13.98;2.60;;;8.30;99.90;;;;;;5047477;27;20043;-66
2023/03/25 04:09:32;;;;;;;17.42;3.35;;;8.30;99.90;;;;;;5130267;27;20049;-67
2023/03/25 04:12:01;;;;;;;19.30;3.23;;;8.30;99.90;;;;;;5113893;27;20050;-66
2023/03/25 04:14:27;;;;;;;13.93;2.65;;;8.30;99.90;;;;;;5109922;27;20038;-67
2023/03/25 04:16:54;;;;;;;13.40;3.25;;;8.30;99.90;;;;;;5110509;27;20711;-67
2023/03/25 04:19:20;;;;;;;14.50;3.40;;;8.30;99.90;;;;;;5111656;27;20034;-67
2023/03/25 04:21:49;;;;;;;11.65;3.08;;;8.30;99.90;;;;;;5105892;27;20032;-67
2023/03/25 04:24:15;;;;;;;10.52;2.80;;;8.30;99.90;;;;;;5110522;28;20179;-66
2023/03/25 04:26:42;;;;;;;12.35;2.83;;;8.30;99.90;;;;;;5104149;27;20035;-67
2023/03/25 04:29:08;;;;;;;13.65;2.72;;;8.30;99.90;;;;;;5093522;28;20063;-67
2023/03/25 04:31:36;;;;;;;14.45;3.33;;;8.40;99.90;;;;;;5118161;27;20388;-66
2023/03/25 04:34:03;;;;;;;19.25;3.13;;;8.40;99.90;;;;;;5154170;27;20062;-67
2023/03/25 04:36:32;;;;;;;14.88;2.97;;;8.30;99.90;;;;;;5109863;27;20051;-67
2023/03/25 04:38:58;;;;;;;12.25;2.78;;;8.30;99.90;;;;;;5111660;27;20829;-68
2023/03/25 04:41:24;;;;;;;17.42;2.70;;;8.30;99.90;;;;;;5118589;28;20039;-67
2023/03/25 04:43:50;;;;;;;17.38;3.95;;;8.30;99.90;;;;;;5106301;27;20031;-67
2023/03/25 04:46:17;;;;;;;13.05;2.90;;;8.30;99.90;;;;;;5116383;27;20046;-66
2023/03/25 04:48:44;;;;;;;10.85;3.22;;;8.20;99.90;;;;;;5108393;27;20043;-67
2023/03/25 04:51:14;;;;;;;14.18;2.92;;;8.20;99.90;;;;;;5089834;27;20134;-68
2023/03/25 04:53:41;;;;;;;15.25;3.38;;;8.20;99.90;;;;;;5103614;27;20108;-66
2023/03/25 04:56:15;;;;;;;13.90;2.75;;;8.20;99.90;;;;;;5108289;27;20053;-66
2023/03/25 04:58:44;;;;;;;14.63;3.10;;;8.20;99.90;;;;;;5138717;27;20054;-67
2023/03/25 05:01:29;;;;;;;12.82;2.85;;;8.20;99.90;;;;;;5108608;27;20031;-67
2023/03/25 05:04:04;;;;;;;14.15;3.13;;;8.20;99.90;;;;;;5101264;27;20054;-67
2023/03/25 05:06:34;;;;;;;13.43;3.15;;;8.20;99.90;;;;;;5107841;27;20055;-66
2023/03/25 05:09:03;;;;;;;19.38;3.20;;;8.20;99.90;;;;;;5104514;27;20045;-67
2023/03/25 05:11:30;;;;;;;10.50;3.08;;;8.20;99.90;;;;;;5110931;27;20043;-67
2023/03/25 05:13:55;;;;;;;13.63;2.90;;;8.20;99.90;;;;;;5136995;27;20036;-66
2023/03/25 05:16:21;;;;;;;13.45;3.08;;;8.20;99.90;;;;;;5108866;27;20046;-66
2023/03/25 05:18:47;;;;;;;17.83;4.47;;;8.20;99.90;;;;;;5110568;27;20057;-67
2023/03/25 05:21:14;;;;;;;16.33;3.05;;;8.20;99.90;;;;;;5103138;27;20032;-66
2023/03/25 05:23:40;;;;;;;13.77;3.20;;;8.20;99.90;;;;;;5102497;27;20430;-67
2023/03/25 05:26:07;;;;;;;14.98;3.20;;;8.20;99.90;;;;;;5135324;27;20152;-66
2023/03/25 05:28:34;;;;;;;11.10;3.22;;;8.20;99.90;;;;;;5103448;27;20043;-67
2023/03/25 05:31:07;;;;;;;17.65;3.45;;;8.20;99.90;;;;;;5093707;27;20043;-67
2023/03/25 05:33:42;;;;;;;14.27;4.15;;;8.20;99.90;;;;;;5103095;28;20485;-68
2023/03/25 05:36:16;;;;;;;14.90;2.97;;;8.20;99.90;;;;;;5105007;28;20404;-66
2023/03/25 05:38:43;;;;;;;13.95;4.13;;;8.10;99.90;;;;;;5107526;28;20036;-67
2023/03/25 05:41:15;;;;;;;18.45;3.80;;;8.10;99.90;;;;;;5093031;28;20046;-68
2023/03/25 05:43:49;;;;;;;14.23;3.65;;;8.10;99.90;;;;;;5115598;27;20462;-67
2023/03/25 05:46:17;;;;;;;18.17;4.13;;;8.10;99.90;;;;;;5106747;27;20047;-67
2023/03/25 05:48:43;;;;;;;17.15;3.90;;;8.10;99.90;;;;;;5111021;27;20068;-67
2023/03/25 05:51:16;;;;;;;17.15;3.53;;;8.00;99.90;;;;;;5125184;27;20054;-66
2023/03/25 05:53:42;;;;;;;;;;;8.00;99.90;;;;;;5093907;28;20047;-67
2023/03/25 05:56:10;;;;;;;18.77;3.63;;;8.00;99.90;;;;;;5111068;27;19971;-66
2023/03/25 05:58:35;;;;;;;16.73;4.10;;;8.00;99.90;;;;;;5113519;27;20043;-66
2023/03/25 06:01:04;;;;;;;15.90;3.72;;;8.00;99.90;;;;;;5111495;28;20038;-67
2023/03/25 06:03:33;;;;;;;16.52;4.30;;;8.00;99.90;;;;;;5111545;27;20044;-68
2023/03/25 06:05:59;;;;;;;12.45;3.20;;;8.00;99.90;;;;;;5092134;28;20046;-66
2023/03/25 06:08:25;;;;;;;16.05;3.85;;;8.00;99.90;;;;;;5106585;27;20134;-66
2023/03/25 06:10:57;;;;;;;19.42;3.53;;;8.00;99.90;;;;;;5134426;27;20172;-67
2023/03/25 06:13:23;;;;;;;19.42;3.53;;;8.00;99.90;;;;;;5110991;27;20135;-67
2023/03/25 06:15:54;;;;;;;17.48;4.63;;;8.00;99.90;;;;;;5109292;27;20042;-67
2023/03/25 06:18:23;;;;;;;15.50;2.80;;;8.00;99.90;;;;;;5109154;27;20041;-66
2023/03/25 06:20:52;;;;;;;12.73;2.75;;;8.00;99.90;;;;;;5108895;27;20047;-67
2023/03/25 06:23:21;;;;;;;20.05;3.38;;;8.00;99.90;;;;;;5110605;27;20047;-67
2023/03/25 06:25:48;;;;;;;12.90;2.72;;;8.10;99.90;;;;;;5108346;28;21460;-66
2023/03/25 06:28:17;;;;;;;16.70;2.90;;;8.10;99.90;;;;;;5133779;27;20143;-66
2023/03/25 06:30:51;;;;;;;11.50;2.00;;;8.10;99.90;;;;;;5104464;27;20043;-67
2023/03/25 06:33:18;;;;;;;16.00;2.80;;;8.10;99.90;;;;;;5107760;28;20109;-66
2023/03/25 06:35:52;;;;;;;11.00;2.45;;;8.10;99.90;;;;;;5109731;27;20036;-67
2023/03/25 06:38:20;;;;;;;16.92;2.83;;;8.20;99.90;;;;;;5120085;27;20036;-67
2023/03/25 06:40:46;;;;;;;17.73;2.90;;;8.20;99.90;;;;;;5110389;28;20044;-65
2023/03/25 06:43:12;;;;;;;17.48;3.17;;;8.30;99.90;;;;;;5104302;27;20414;-66
2023/03/25 06:45:38;;;;;;;22.58;4.13;;;8.40;99.90;;;;;;5106404;28;20046;-66
2023/03/25 06:48:04;;;;;;;16.00;2.60;;;8.50;99.90;;;;;;5103892;27;20047;-66
2023/03/25 06:50:31;;;;;;;14.23;2.55;;;8.70;99.90;;;;;;5102160;28;20393;-66
2023/03/25 06:52:57;;;;;;;17.27;3.47;;;8.70;99.90;;;;;;5107426;27;20035;-66
2023/03/25 06:55:23;;;;;;;16.35;2.53;;;8.80;99.90;;;;;;5108162;27;20410;-67
2023/03/25 06:57:49;;;;;;;18.60;2.95;;;8.90;99.90;;;;;;5117439;27;20053;-67
2023/03/25 07:00:19;;;;;;;13.82;2.85;;;9.00;99.90;;;;;;5108450;28;20122;-68
2023/03/25 07:02:45;;;;;;;19.15;2.70;;;9.10;99.90;;;;;;5102352;27;20494;-67
2023/03/25 07:05:11;;;;;;;20.10;2.85;;;9.10;99.90;;;;;;5105976;28;20044;-66
2023/03/25 07:07:36;;;;;;;11.10;2.70;;;9.20;99.90;;;;;;5108698;28;20127;-68
2023/03/25 07:10:03;;;;;;;16.70;3.20;;;9.20;99.90;;;;;;5108867;27;20035;-67
2023/03/25 07:12:29;;;;;;;16.83;2.58;;;9.20;99.90;;;;;;5109387;27;20044;-68
2023/03/25 07:14:59;;;;;;;14.65;3.45;;;9.20;99.90;;;;;;5103011;27;20036;-66
2023/03/25 07:17:25;;;;;;;16.45;2.95;;;9.10;99.90;;;;;;5109745;28;20483;-66
2023/03/25 07:19:50;;;;;;;15.85;2.85;;;9.00;99.90;;;;;;5108323;27;20108;-67
2023/03/25 07:22:17;;;;;;;20.80;3.13;;;9.00;99.90;;;;;;5109046;28;20055;-67
2023/03/25 07:24:42;;;;;;;16.77;3.63;;;8.80;99.90;;;;;;5104364;27;20097;-68
2023/03/25 07:27:13;;;;;;;19.27;3.53;;;8.70;99.90;;;;;;5109908;27;20044;-66
2023/03/25 07:29:39;;;;;;;23.55;3.55;;;8.50;99.90;;;;;;5107008;28;20082;-67
2023/03/25 07:32:05;;;;;;;22.33;3.30;;;8.40;99.90;;;;;;5108775;28;20050;-66
2023/03/25 07:34:31;;;;;;;21.45;3.33;;;8.30;99.90;;;;;;5099402;28;20051;-66
2023/03/25 07:36:56;;;;;;;22.10;3.72;;;8.20;99.90;;;;;;5087613;28;20115;-67
2023/03/25 07:39:24;;;;;;;20.35;2.95;;;8.20;99.90;;;;;;5107419;28;20036;-66
2023/03/25 07:41:50;;;;;;;18.75;2.80;;;8.20;99.90;;;;;;5108742;28;20525;-68
2023/03/25 07:44:19;;;;;;;20.77;3.00;;;8.20;99.90;;;;;;5107030;28;20043;-66
2023/03/25 07:46:45;;;;;;;22.90;2.72;;;8.20;99.90;;;;;;5160764;27;20031;-66
2023/03/25 07:49:11;;;;;;;21.33;3.33;;;8.30;99.90;;;;;;5128701;27;20122;-67
2023/03/25 07:51:37;;;;;;;21.65;4.22;;;8.40;99.90;;;;;;5107473;27;20169;-67
2023/03/25 07:54:03;;;;;;;20.52;2.92;;;8.40;99.90;;;;;;5107999;28;20076;-67
2023/03/25 07:56:28;;;;;;;27.58;3.92;;;8.40;99.90;;;;;;5107415;28;20039;-66
2023/03/25 07:58:54;;;;;;;25.88;3.67;;;8.30;99.90;;;;;;5105951;28;20123;-66
2023/03/25 08:01:19;;;;;;;18.10;2.72;;;8.30;99.90;;;;;;5108570;28;20178;-67
2023/03/25 08:03:45;;;;;;;19.13;3.13;;;8.30;99.90;;;;;;5106309;28;20496;-65
2023/03/25 08:06:11;;;;;;;24.35;3.85;;;8.30;99.90;;;;;;5105065;27;20369;-67
2023/03/25 08:08:36;;;;;;;23.60;3.58;;;8.30;99.90;;;;;;5107885;28;20042;-67
2023/03/25 08:11:02;;;;;;;22.85;3.05;;;8.30;99.90;;;;;;5109042;28;20028;-66
2023/03/25 08:13:29;;;;;;;26.13;4.25;;;8.40;99.90;;;;;;5108191;28;20036;-65
2023/03/25 08:15:54;;;;;;;18.77;3.88;;;8.50;99.90;;;;;;5107312;28;20035;-66
2023/03/25 08:18:20;;;;;;;24.20;3.33;;;8.50;99.90;;;;;;5107045;28;20042;-67
2023/03/25 08:20:47;;;;;;;17.58;3.15;;;8.50;99.90;;;;;;5108164;28;20031;-66
2023/03/25 08:23:18;;;;;;;22.13;3.28;;;8.50;99.90;;;;;;5105937;28;20050;-67
2023/03/25 08:25:48;;;;;;;22.15;2.95;;;8.60;99.90;;;;;;5108294;28;20064;-67
2023/03/25 08:28:21;;;;;;;26.23;3.55;;;8.60;99.90;;;;;;5105619;28;20047;-66
2023/03/25 08:30:48;;;;;;;15.68;2.72;;;8.70;99.90;;;;;;5106798;28;20079;-65
2023/03/25 08:33:15;;;;;;;17.63;2.88;;;8.70;99.90;;;;;;5106566;28;20043;-68
2023/03/25 08:35:41;;;;;;;26.23;4.15;;;8.80;99.90;;;;;;5107491;28;20046;-67
2023/03/25 08:38:07;;;;;;;18.80;3.13;;;8.90;99.90;;;;;;5107258;28;20043;-66
2023/03/25 08:40:34;;;;;;;20.60;3.38;;;9.00;99.90;;;;;;5105423;28;20035;-66
2023/03/25 08:43:03;;;;;;;23.52;3.20;;;9.10;99.90;;;;;;5107425;28;20127;-67
2023/03/25 08:45:30;;;;;;;22.83;3.72;;;9.10;99.90;;;;;;5107801;28;20047;-66
2023/03/25 08:47:56;;;;;;;18.85;3.03;;;9.10;99.90;;;;;;5090579;28;20122;-67
2023/03/25 08:50:21;;;;;;;19.13;2.72;;;9.10;99.90;;;;;;5106931;28;20119;-66
2023/03/25 08:52:47;;;;;;;22.13;3.58;;;9.10;99.90;;;;;;5107871;28;20054;-66
2023/03/25 08:55:15;;;;;;;20.15;3.38;;;9.10;99.90;;;;;;5107568;28;20035;-67
2023/03/25 08:57:41;;;;;;;25.83;4.88;;;9.10;99.90;;;;;;5106679;28;20039;-66
2023/03/25 09:00:13;;;;;;;25.42;3.08;;;9.10;99.90;;;;;;5108277;28;20087;-67
2023/03/25 09:02:41;;;;;;;17.17;2.63;;;9.10;99.90;;;;;;5105759;28;20105;-67
2023/03/25 09:05:08;;;;;;;23.15;3.83;;;9.10;99.90;;;;;;5106018;28;20110;-66
2023/03/25 09:07:35;;;;;;;21.13;3.20;;;9.00;99.90;;;;;;5105762;28;20035;-67
2023/03/25 09:10:00;;;;;;;14.98;2.90;;;9.10;99.90;;;;;;5104875;28;20040;-67
2023/03/25 09:12:26;;;;;;;16.17;3.40;;;9.10;99.90;;;;;;5105662;28;20040;-66
2023/03/25 09:14:52;;;;;;;16.83;3.45;;;9.20;99.90;;;;;;5107428;28;20090;-67
2023/03/25 09:17:17;;;;;;;15.07;3.00;;;9.40;99.90;;;;;;5108599;27;20044;-67
2023/03/25 09:19:43;;;;;;;18.02;3.17;;;9.50;99.90;;;;;;5111684;27;20383;-67
2023/03/25 09:22:09;;;;;;;19.80;2.83;;;9.60;99.90;;;;;;5107459;27;20035;-67
2023/03/25 09:24:34;;;;;;;14.90;2.88;;;9.80;99.90;;;;;;5104275;27;20055;-66
2023/03/25 09:27:01;;;;;;;17.67;2.78;;;9.80;99.90;;;;;;5099815;28;20040;-67
2023/03/25 09:29:28;;;;;;;12.43;2.45;;;9.70;99.90;;;;;;5100774;27;20748;-66
2023/03/25 09:31:57;;;;;;;16.98;3.00;;;9.60;99.90;;;;;;5109468;27;20036;-66
2023/03/25 09:34:23;;;;;;;15.95;3.10;;;9.60;99.90;;;;;;5109637;27;20059;-67
2023/03/25 09:36:48;;;;;;;14.23;2.42;;;9.50;99.90;;;;;;5109889;27;20565;-67
2023/03/25 09:39:14;;;;;;;15.63;3.00;;;9.50;99.90;;;;;;5110003;27;20122;-67
2023/03/25 09:42:03;;;;;;;19.45;2.75;;;9.40;99.90;;;;;;5110806;27;20040;-66
2023/03/25 09:44:35;;;;;;;19.75;3.15;;;9.40;99.90;;;;;;5069788;28;20048;-67
2023/03/25 09:47:01;;;;;;;16.05;2.40;;;9.30;99.90;;;;;;5035174;28;20523;-66
2023/03/25 09:49:37;;;;;;;14.70;3.40;;;9.30;99.90;;;;;;5031686;28;20049;-67
2023/03/25 09:52:04;;;;;;;17.40;3.45;;;9.40;99.90;;;;;;5048759;28;20106;-66
2023/03/25 09:54:36;;;;;;;16.38;2.60;;;9.50;99.90;;;;;;5032151;28;20116;-66
2023/03/25 09:57:07;;;;;;;15.90;2.57;;;9.60;99.90;;;;;;5047476;28;20470;-66
2023/03/25 09:59:45;;;;;;;18.10;2.60;;;9.80;99.90;;;;;;5030813;28;20136;-66
2023/03/25 10:02:46;;;;;;;16.63;3.58;;;9.90;99.90;;;;;;5063295;28;20455;-66
2023/03/25 10:05:24;;;;;;;13.93;4.13;;;9.90;99.90;;;;;;5009648;28;20072;-66
2023/03/25 10:08:23;;;;;;;19.50;3.42;;;10.00;99.90;;;;;;5048697;28;20057;-66
2023/03/25 10:10:54;;;;;;;17.05;3.58;;;10.00;99.90;;;;;;5048704;28;20033;-66
2023/03/25 10:13:34;;;;;;;15.88;3.25;;;10.00;99.90;;;;;;5049724;28;20557;-67
2023/03/25 10:16:05;;;;;;;14.23;3.05;;;10.00;99.90;;;;;;5047989;28;20053;-67
2023/03/25 10:18:43;;;;;;;15.20;2.75;;;10.00;99.90;;;;;;5049042;28;20753;-67
2023/03/25 10:21:34;;;;;;;16.70;3.42;;;9.90;99.90;;;;;;5039238;28;20060;-66
2023/03/25 10:24:15;;;;;;;16.08;2.85;;;9.90;99.90;;;;;;5110075;28;20058;-66
2023/03/25 10:26:52;;;;;;;16.63;3.08;;;10.00;99.90;;;;;;5091496;28;20032;-65
2023/03/25 10:29:25;;;;;;;18.13;2.67;;;10.00;99.90;;;;;;5106929;28;20100;-66
2023/03/25 10:31:53;;;;;;;15.98;2.63;;;10.00;99.90;;;;;;5112352;27;20039;-66
2023/03/25 10:34:39;;;;;;;14.57;2.53;;;10.00;99.90;;;;;;5108899;27;20051;-66
2023/03/25 10:37:11;;;;;;;12.52;2.50;;;9.90;99.90;;;;;;5108167;28;20032;-65
2023/03/25 10:39:44;;;;;;;13.57;2.60;;;10.00;99.90;;;;;;5111643;27;20044;-67
2023/03/25 10:42:21;;;;;;;16.33;3.17;;;10.00;99.90;;;;;;5091993;27;20073;-66
2023/03/25 10:44:47;;;;;;;17.45;2.53;;;10.00;99.90;;;;;;5109882;28;20866;-67
2023/03/25 10:47:21;;;;;;;17.15;3.33;;;10.00;99.90;;;;;;5108898;27;20081;-66
2023/03/25 10:49:49;;;;;;;16.83;2.85;;;10.10;99.90;;;;;;5107748;27;20474;-66
2023/03/25 10:52:15;;;;;;;16.10;2.50;;;10.20;99.90;;;;;;5108653;27;20047;-68
2023/03/25 10:54:45;;;;;;;16.30;2.50;;;10.40;99.90;;;;;;5109714;27;20035;-67
2023/03/25 10:57:27;;;;;;;21.00;3.15;;;10.40;99.90;;;;;;5109738;27;20482;-67
2023/03/25 11:00:03;;;;;;;15.43;2.55;;;10.40;99.90;;;;;;5095530;28;20078;-66
2023/03/25 11:02:31;;;;;;;16.55;2.63;;;10.40;99.90;;;;;;5146283;27;20121;-66
2023/03/25 11:05:00;;;;;;;16.52;2.40;;;10.40;99.90;;;;;;5101602;28;20111;-66
2023/03/25 11:07:31;;;;;;;15.02;3.50;;;10.40;99.90;;;;;;5107984;28;20046;-66
2023/03/25 11:10:13;;;;;;;21.90;2.97;;;10.50;99.90;;;;;;5109590;28;20043;-68
2023/03/25 11:12:45;;;;;;;15.00;3.13;;;10.60;99.90;;;;;;5110787;27;20061;-67
2023/03/25 11:15:15;;;;;;;12.73;3.17;;;10.60;99.90;;;;;;5110166;28;20482;-68
2023/03/25 11:17:43;;;;;;;15.25;3.20;;;10.70;99.90;;;;;;5107737;28;20108;-66
2023/03/25 11:20:17;;;;;;;18.40;2.50;;;10.70;99.90;;;;;;5109701;28;20504;-66
2023/03/25 11:22:52;;;;;;;16.80;2.45;;;10.90;99.90;;;;;;5109337;28;20035;-66
2023/03/25 11:25:29;;;;;;;15.75;2.38;;;11.00;99.90;;;;;;5086695;28;20056;-65
2023/03/25 11:28:03;;;;;;;20.00;2.92;;;11.10;99.90;;;;;;5106646;28;20509;-66
2023/03/25 11:30:29;;;;;;;16.80;3.10;;;11.10;99.90;;;;;;5111114;27;20047;-66
2023/03/25 11:33:06;;;;;;;15.23;2.88;;;11.20;99.90;;;;;;5110531;27;20551;-65
2023/03/25 11:35:41;;;;;;;14.00;2.30;;;11.10;99.90;;;;;;5111412;27;20046;-67
2023/03/25 11:38:21;;;;;;;14.73;3.10;;;11.00;99.90;;;;;;5123010;27;20133;-66
2023/03/25 11:40:53;;;;;;;13.25;2.20;;;11.00;99.90;;;;;;5110371;27;20438;-67
2023/03/25 11:43:25;;;;;;;13.40;2.97;;;11.00;99.90;;;;;;5094534;27;20181;-68
2023/03/25 11:45:52;;;;;;;12.75;2.00;;;11.00;99.90;;;;;;5112470;27;20047;-67
2023/03/25 11:48:23;;;;;;;11.63;2.40;;;11.30;99.90;;;;;;5093806;27;20051;-66
2023/03/25 11:50:58;;;;;;;14.13;2.65;;;11.60;99.90;;;;;;5112638;27;20497;-67
2023/03/25 11:53:25;;;;;;;20.85;3.50;;;11.70;99.90;;;;;;5110031;27;20079;-66
2023/03/25 11:56:01;;;;;;;12.98;2.55;;;12.00;99.90;;;;;;5110670;27;20501;-66
2023/03/25 11:58:30;;;;;;;12.45;2.38;;;11.90;99.90;;;;;;5095036;27;20046;-65
2023/03/25 12:01:05;;;;;;;15.10;2.80;;;12.00;99.90;;;;;;5111177;27;20039;-66
2023/03/25 12:03:33;;;;;;;15.95;2.95;;;11.60;99.90;;;;;;5110998;27;20159;-67
2023/03/25 12:06:14;;;;;;;18.02;2.25;;;11.40;99.90;;;;;;5110357;27;20058;-66
2023/03/25 12:08:52;;;;;;;15.20;3.55;;;11.40;99.90;;;;;;5111862;27;20047;-67
2023/03/25 12:11:29;;;;;;;14.35;2.40;;;11.60;99.90;;;;;;5111953;27;20134;-66
2023/03/25 12:14:33;;;;;;;15.77;2.60;;;11.80;99.90;;;;;;5111755;27;20050;-66
2023/03/25 12:17:31;;;;;;;12.10;2.28;;;11.70;99.90;;;;;;5111125;27;20095;-66
2023/03/25 12:20:10;;;;;;;11.65;2.60;;;11.30;99.90;;;;;;5112011;27;20051;-65
2023/03/25 12:23:13;;;;;;;15.45;2.70;;;11.20;99.90;;;;;;5112178;27;20486;-66
2023/03/25 12:26:10;;;;;;;11.75;2.30;;;11.00;99.90;;;;;;5111705;27;20171;-65
2023/03/25 12:29:36;;;;;;;12.38;2.78;;;11.00;99.90;;;;;;5110719;27;20118;-66
2023/03/25 12:32:35;;;;;;;17.13;2.60;;;11.10;99.90;;;;;;5010612;28;20038;-67
2023/03/25 12:35:19;;;;;;;13.35;2.95;;;11.30;99.90;;;;;;5010016;28;20593;-66
2023/03/25 12:38:33;;;;;;;14.05;2.85;;;11.50;99.90;;;;;;5008599;28;20075;-68
2023/03/25 12:40:58;;;;;;;;;;;11.40;99.90;;;;;;4952453;28;20564;-65
2023/03/25 12:43:41;;;;;;;15.02;3.05;;;11.40;99.90;;;;;;4967671;28;19923;-67
2023/03/25 12:46:23;;;;;;;10.68;2.22;;;11.40;99.90;;;;;;4951927;28;20486;-68
2023/03/25 12:49:00;;;;;;;15.70;2.78;;;11.30;99.90;;;;;;4953278;28;20105;-68
2023/03/25 12:52:03;;;;;;;14.40;2.88;;;11.30;99.90;;;;;;4971613;28;20053;-66
2023/03/25 12:54:35;;;;;;;14.23;2.90;;;11.20;99.90;;;;;;4968412;28;20063;-67
2023/03/25 12:57:12;;;;;;;13.80;2.60;;;11.10;99.90;;;;;;4954527;28;20074;-67
2023/03/25 13:00:06;;;;;;;10.30;1.85;;;11.10;99.90;;;;;;4955440;28;20050;-68
2023/03/25 13:02:45;;;;;;;13.93;2.67;;;11.30;99.90;;;;;;5004393;28;20099;-66
2023/03/25 13:05:29;;;;;;;15.93;2.80;;;11.60;99.90;;;;;;5033662;28;20043;-66
2023/03/25 13:08:02;;;;;;;15.60;2.38;;;11.50;99.90;;;;;;5023997;28;20127;-66
2023/03/25 13:10:34;;;;;;;12.93;2.75;;;11.30;99.90;;;;;;5031474;28;20045;-66